Time;durP1;ratioP1;P1;durP2;ratioP2;P2;SDS_P1;SDS_P2;PMS_P1;PMS_P2;Temp;Humidity;BMP_temperature;BMP_pressure;BME280_temperature;BME280_humidity;BME280_pressure;Samples;Min_cycle;Max_cycle;Signal;HPM_P1;HPM_P2
2021/10/13 00:01:53;;;;;;;5.57;1.10;;;;;;;8.81;78.77;100982.88;5033916;28;20168;-72
2021/10/13 00:04:18;;;;;;;4.27;0.80;;;;;;;8.84;78.66;100981.88;5033989;28;20180;-72
2021/10/13 00:06:44;;;;;;;2.97;1.00;;;;;;;8.69;78.56;100978.97;5033653;28;20181;-72
2021/10/13 00:09:10;;;;;;;2.80;0.90;;;;;;;8.88;78.39;100987.00;5033535;28;20290;-72
2021/10/13 00:11:37;;;;;;;3.87;1.30;;;;;;;8.71;78.46;100990.41;5033527;28;20224;-73
2021/10/13 00:14:02;;;;;;;2.60;1.00;;;;;;;8.71;78.79;100986.88;5016910;28;20310;-72
2021/10/13 00:16:30;;;;;;;2.03;0.80;;;;;;;8.76;78.24;100987.56;5033508;28;20180;-72
2021/10/13 00:18:55;;;;;;;2.70;0.77;;;;;;;8.65;78.82;100990.69;5049924;28;20204;-72
2021/10/13 00:21:21;;;;;;;6.43;1.13;;;;;;;8.68;78.95;101000.31;5034670;28;20188;-72
2021/10/13 00:23:46;;;;;;;2.77;0.90;;;;;;;8.66;78.86;100999.53;5033633;28;20187;-72
2021/10/13 00:26:11;;;;;;;3.20;0.87;;;;;;;8.62;78.89;101000.59;5032838;28;20180;-72
2021/10/13 00:28:36;;;;;;;3.00;0.87;;;;;;;8.55;79.58;100997.31;5032675;28;20307;-72
2021/10/13 00:31:02;;;;;;;6.13;0.80;;;;;;;8.38;79.88;100991.81;5016606;28;20234;-72
2021/10/13 00:33:27;;;;;;;3.67;0.80;;;;;;;8.30;80.00;100999.22;5034344;28;20176;-72
2021/10/13 00:35:52;;;;;;;2.77;0.93;;;;;;;8.24;80.31;100991.50;5033792;28;20238;-72
2021/10/13 00:38:18;;;;;;;2.47;1.10;;;;;;;8.20;80.25;100997.88;5032789;28;20219;-72
2021/10/13 00:40:43;;;;;;;3.80;1.00;;;;;;;8.24;80.10;101003.00;5032901;28;20263;-72
2021/10/13 00:43:08;;;;;;;1.67;0.70;;;;;;;8.20;80.04;101006.72;5033527;28;20173;-72
2021/10/13 00:45:34;;;;;;;3.33;0.97;;;;;;;8.30;80.43;101010.72;5016295;28;20637;-72
2021/10/13 00:47:59;;;;;;;2.43;0.80;;;;;;;8.19;80.83;101007.66;5016215;28;20180;-72
2021/10/13 00:50:24;;;;;;;3.43;1.20;;;;;;;8.16;80.61;101002.41;5033053;28;20176;-72
2021/10/13 00:52:50;;;;;;;2.97;0.80;;;;;;;8.20;80.39;101011.16;5016103;28;20614;-72
2021/10/13 00:55:19;;;;;;;2.70;1.00;;;;;;;8.27;80.58;101005.53;5032590;28;20677;-71
2021/10/13 00:57:45;;;;;;;2.77;0.87;;;;;;;8.22;80.39;101012.84;5016599;28;20263;-73
2021/10/13 01:00:11;;;;;;;8.13;0.77;;;;;;;8.27;80.68;101016.19;5032670;28;20180;-71
2021/10/13 01:02:43;;;;;;;2.50;0.77;;;;;;;8.45;80.53;101023.41;5016076;28;20642;-72
2021/10/13 01:05:27;;;;;;;1.43;0.80;;;;;;;8.62;79.63;101029.84;5016137;28;20175;-71
2021/10/13 01:08:30;;;;;;;1.93;0.83;;;;;;;8.70;78.83;101019.75;5015961;28;20169;-71
2021/10/13 01:11:09;;;;;;;2.60;0.80;;;;;;;8.52;79.21;101012.53;5012218;28;20230;-71
2021/10/13 01:13:59;;;;;;;1.13;0.80;;;;;;;8.63;78.76;101015.63;5032456;28;20203;-71
2021/10/13 01:16:46;;;;;;;1.53;0.70;;;;;;;8.70;78.77;101019.75;5034148;28;20169;-73
2021/10/13 01:19:42;;;;;;;3.87;1.00;;;;;;;8.74;78.43;101018.69;5033249;28;20258;-73
2021/10/13 01:22:48;;;;;;;3.10;0.80;;;;;;;8.77;78.04;101029.19;5032406;28;20575;-73
2021/10/13 01:25:33;;;;;;;1.17;0.60;;;;;;;8.77;78.63;101024.75;5015745;28;20175;-73
2021/10/13 01:28:00;;;;;;;3.33;1.17;;;;;;;8.70;78.86;101027.72;5033364;28;20568;-73
2021/10/13 01:30:31;;;;;;;1.83;0.57;;;;;;;8.80;77.73;101020.22;5032093;28;20168;-71
2021/10/13 01:32:59;;;;;;;8.97;0.90;;;;;;;8.69;78.04;101023.34;5015590;28;20661;-72
2021/10/13 01:35:26;;;;;;;2.50;0.70;;;;;;;8.79;78.43;101024.69;5015421;28;20558;-72
2021/10/13 01:37:54;;;;;;;1.63;0.70;;;;;;;8.76;77.37;101023.00;5031671;28;20193;-72
2021/10/13 01:40:21;;;;;;;4.03;1.30;;;;;;;8.71;77.92;101018.81;5015549;28;20187;-71
2021/10/13 01:42:50;;;;;;;3.00;1.13;;;;;;;8.72;77.75;101025.88;5031996;28;20191;-71
2021/10/13 01:45:16;;;;;;;3.20;1.20;;;;;;;8.67;77.52;101025.22;5031802;28;20253;-72
2021/10/13 01:47:44;;;;;;;4.80;1.17;;;;;;;8.63;78.28;101024.47;5015218;28;20314;-72
2021/10/13 01:50:10;;;;;;;1.03;0.60;;;;;;;8.63;77.69;101028.94;5048355;28;20230;-72
2021/10/13 01:52:36;;;;;;;3.37;1.47;;;;;;;8.58;78.08;101036.25;5031841;28;20200;-71
2021/10/13 01:55:03;;;;;;;1.10;0.80;;;;;;;8.55;78.04;101031.91;5032154;28;20203;-73
2021/10/13 01:57:29;;;;;;;3.50;0.80;;;;;;;8.50;78.52;101038.31;5015399;28;20638;-72
2021/10/13 01:59:57;;;;;;;2.30;1.00;;;;;;;8.48;78.60;101038.38;5015207;28;20345;-72
2021/10/13 02:02:33;;;;;;;1.17;0.80;;;;;;;8.48;78.63;101035.72;5031897;28;20177;-72
2021/10/13 02:04:58;;;;;;;1.87;0.73;;;;;;;8.33;78.65;101028.34;5031714;28;20168;-71
2021/10/13 02:07:26;;;;;;;3.17;1.10;;;;;;;8.41;78.62;101037.78;5032357;28;20259;-71
2021/10/13 02:09:52;;;;;;;2.27;0.87;;;;;;;8.38;78.71;101031.72;5031661;28;20195;-72
2021/10/13 02:12:19;;;;;;;3.37;0.90;;;;;;;8.36;79.07;101031.78;5031554;28;20688;-72
2021/10/13 02:14:44;;;;;;;1.70;0.63;;;;;;;8.37;78.66;101028.19;5031604;28;20172;-72
2021/10/13 02:17:11;;;;;;;3.30;0.73;;;;;;;8.37;78.96;101032.66;5031707;28;20180;-72
2021/10/13 02:19:38;;;;;;;0.60;0.60;;;;;;;8.37;78.75;101036.16;5031591;28;20200;-72
2021/10/13 02:22:04;;;;;;;1.87;0.90;;;;;;;8.44;78.35;101039.44;5031675;28;20267;-72
2021/10/13 02:24:39;;;;;;;3.13;0.70;;;;;;;8.54;78.39;101039.94;5031612;28;20582;-72
2021/10/13 02:27:08;;;;;;;3.10;0.90;;;;;;;8.43;78.73;101046.56;5031571;28;20165;-72
2021/10/13 02:29:33;;;;;;;0.87;0.60;;;;;;;8.36;78.64;101042.41;5031597;28;20238;-72
2021/10/13 02:31:59;;;;;;;2.13;0.70;;;;;;;8.28;78.90;101043.63;5014956;28;20196;-73
2021/10/13 02:34:24;;;;;;;2.37;0.73;;;;;;;8.36;78.90;101053.06;5031435;28;20542;-71
2021/10/13 02:36:49;;;;;;;2.00;1.00;;;;;;;8.29;79.26;101054.22;5032673;28;20180;-72
2021/10/13 02:39:15;;;;;;;2.07;1.00;;;;;;;8.28;79.01;101048.94;5032660;28;20362;-72
2021/10/13 02:41:40;;;;;;;2.43;0.80;;;;;;;8.24;79.37;101053.53;5031309;28;20262;-72
2021/10/13 02:44:06;;;;;;;1.63;0.80;;;;;;;8.35;78.90;101058.44;5014940;28;20183;-72
2021/10/13 02:46:37;;;;;;;5.60;0.87;;;;;;;8.32;79.19;101056.75;5031425;28;20182;-71
2021/10/13 02:49:17;;;;;;;6.10;0.93;;;;;;;8.53;78.69;101063.00;5014745;28;20196;-72
2021/10/13 02:51:51;;;;;;;2.60;0.90;;;;;;;8.49;78.73;101053.41;5017732;28;20204;-72
2021/10/13 02:54:23;;;;;;;2.80;1.03;;;;;;;8.39;78.61;101066.22;5034941;28;20176;-72
2021/10/13 02:56:50;;;;;;;2.03;0.90;;;;;;;8.38;79.10;101066.28;5051710;28;20183;-72
2021/10/13 02:59:32;;;;;;;2.50;1.33;;;;;;;8.54;78.56;101063.88;5051484;28;20196;-72
2021/10/13 03:02:02;;;;;;;2.07;0.70;;;;;;;8.62;77.91;101075.97;5034894;28;20618;-72
2021/10/13 03:04:40;;;;;;;2.37;0.70;;;;;;;8.58;77.91;101073.50;5034831;28;20169;-73
2021/10/13 03:07:08;;;;;;;2.53;0.93;;;;;;;8.67;77.34;101063.31;5034934;28;20152;-72
2021/10/13 03:09:35;;;;;;;3.23;0.80;;;;;;;8.83;77.12;101078.63;5034608;28;20200;-72
2021/10/13 03:12:02;;;;;;;4.47;0.80;;;;;;;8.63;77.47;101076.81;5051401;28;20204;-70
2021/10/13 03:14:28;;;;;;;1.93;0.80;;;;;;;8.58;77.76;101073.50;5036179;28;20180;-71
2021/10/13 03:16:53;;;;;;;1.83;0.80;;;;;;;8.60;77.75;101079.59;5035091;28;20523;-72
2021/10/13 03:19:21;;;;;;;3.53;0.90;;;;;;;8.65;78.21;101077.63;5018240;28;20613;-72
2021/10/13 03:21:48;;;;;;;0.50;0.50;;;;;;;8.80;78.16;101089.41;5034891;28;20180;-71
2021/10/13 03:24:18;;;;;;;1.20;1.10;;;;;;;8.75;77.93;101078.97;5017942;28;20190;-72
2021/10/13 03:26:48;;;;;;;3.77;0.87;;;;;;;8.70;78.34;101067.66;5034347;28;20672;-73
2021/10/13 03:29:13;;;;;;;2.60;0.80;;;;;;;8.62;78.45;101083.06;5017532;28;20269;-72
2021/10/13 03:31:39;;;;;;;1.90;0.97;;;;;;;8.54;79.19;101083.34;5050837;28;20196;-72
2021/10/13 03:34:05;;;;;;;3.83;1.20;;;;;;;8.35;79.24;101077.94;5034266;28;20179;-72
2021/10/13 03:36:41;;;;;;;5.40;0.80;;;;;;;8.54;79.50;101094.00;5034575;28;20176;-71
2021/10/13 03:39:07;;;;;;;2.50;1.03;;;;;;;8.37;80.17;101097.34;5017559;28;20203;-71
2021/10/13 03:41:32;;;;;;;2.87;1.00;;;;;;;8.42;79.67;101091.84;5050818;28;20177;-71
2021/10/13 03:43:57;;;;;;;3.00;0.80;;;;;;;8.53;79.83;101108.22;5034341;28;20597;-72
2021/10/13 03:46:23;;;;;;;4.73;1.10;;;;;;;8.51;79.48;101112.75;5035745;28;20188;-71
2021/10/13 03:48:49;;;;;;;1.97;0.90;;;;;;;8.50;79.55;101120.78;5034112;28;20203;-71
2021/10/13 03:51:15;;;;;;;1.50;0.90;;;;;;;8.56;79.81;101113.47;5017547;28;20267;-71
2021/10/13 03:53:40;;;;;;;3.77;1.20;;;;;;;8.42;79.71;101113.13;5035660;28;20180;-72
2021/10/13 03:56:05;;;;;;;1.27;0.90;;;;;;;8.57;79.79;101124.97;5033910;28;20519;-71
2021/10/13 03:58:30;;;;;;;2.17;0.90;;;;;;;8.63;79.79;101119.41;5035331;28;20203;-72
2021/10/13 04:00:56;;;;;;;2.23;1.30;;;;;;;8.70;79.77;101120.88;5034021;28;20235;-71
2021/10/13 04:03:21;;;;;;;1.83;0.90;;;;;;;8.78;79.17;101127.59;5035715;28;20641;-71
2021/10/13 04:05:48;;;;;;;2.30;1.00;;;;;;;8.64;79.40;101129.09;5035407;28;20184;-70
2021/10/13 04:08:13;;;;;;;2.17;1.17;;;;;;;8.70;79.78;101126.19;5033972;28;20196;-71
2021/10/13 04:10:38;;;;;;;2.40;1.20;;;;;;;8.63;79.90;101135.34;5035254;28;20216;-71
2021/10/13 04:13:04;;;;;;;1.33;1.10;;;;;;;8.73;79.81;101132.25;5035168;28;20192;-71
2021/10/13 04:15:29;;;;;;;5.00;1.20;;;;;;;8.66;79.66;101129.91;5033785;28;20184;-71
2021/10/13 04:17:54;;;;;;;3.60;1.30;;;;;;;8.69;80.19;101130.66;5033695;28;20206;-72
2021/10/13 04:20:20;;;;;;;2.40;0.93;;;;;;;8.78;79.50;101134.72;5033782;28;20223;-72
2021/10/13 04:22:45;;;;;;;3.27;1.43;;;;;;;8.63;80.20;101127.38;5035091;28;20226;-72
2021/10/13 04:25:10;;;;;;;5.07;1.20;;;;;;;8.66;79.64;101124.59;5034009;28;20180;-73
2021/10/13 04:27:36;;;;;;;2.07;1.30;;;;;;;8.58;80.50;101126.69;5034809;28;20622;-72
2021/10/13 04:30:03;;;;;;;6.37;1.10;;;;;;;8.55;80.91;101135.66;5033776;28;20246;-73
2021/10/13 04:32:28;;;;;;;1.50;1.20;;;;;;;8.53;80.68;101133.97;5033416;28;20196;-72
2021/10/13 04:34:54;;;;;;;4.73;1.60;;;;;;;8.40;81.22;101142.44;5033266;28;20187;-71
2021/10/13 04:37:19;;;;;;;2.30;1.30;;;;;;;8.38;81.09;101135.44;5018044;28;20175;-73
2021/10/13 04:39:44;;;;;;;4.17;1.30;;;;;;;8.39;81.48;101143.38;5033394;28;20195;-72
2021/10/13 04:42:10;;;;;;;4.47;1.50;;;;;;;8.31;81.62;101140.13;5016676;28;20174;-72
2021/10/13 04:44:35;;;;;;;4.00;1.57;;;;;;;8.30;81.64;101138.38;5033217;28;20550;-72
2021/10/13 04:47:00;;;;;;;3.40;1.53;;;;;;;8.27;81.78;101138.50;5033210;28;20206;-72
2021/10/13 04:49:26;;;;;;;3.77;1.20;;;;;;;8.20;82.09;101136.13;5033184;28;20196;-71
2021/10/13 04:51:51;;;;;;;3.87;1.57;;;;;;;8.22;82.05;101135.16;5033104;28;20231;-72
2021/10/13 04:54:18;;;;;;;4.07;1.50;;;;;;;8.22;81.52;101129.84;5033403;28;20184;-73
2021/10/13 04:56:44;;;;;;;8.07;1.73;;;;;;;8.08;82.14;101134.78;5033162;28;20602;-72
2021/10/13 04:59:09;;;;;;;3.40;1.20;;;;;;;8.02;82.88;101135.91;5017261;28;20295;-72
2021/10/13 05:01:34;;;;;;;4.03;1.40;;;;;;;8.16;82.53;101140.69;5034283;28;20204;-73
2021/10/13 05:04:00;;;;;;;3.87;1.80;;;;;;;8.10;82.45;101133.81;5033166;28;20180;-72
2021/10/13 05:06:25;;;;;;;2.63;1.30;;;;;;;8.01;82.69;101144.78;5017862;28;20646;-72
2021/10/13 05:08:50;;;;;;;2.53;1.40;;;;;;;8.18;82.31;101149.50;5033894;28;20203;-72
2021/10/13 05:11:16;;;;;;;1.97;1.43;;;;;;;7.99;82.98;101149.31;5034292;28;20172;-71
2021/10/13 05:13:41;;;;;;;2.57;1.60;;;;;;;8.02;83.03;101145.66;5031713;28;20589;-71
2021/10/13 05:16:06;;;;;;;2.47;1.57;;;;;;;8.07;82.80;101156.97;5015917;28;20257;-70
2021/10/13 05:18:31;;;;;;;1.50;1.30;;;;;;;8.05;83.29;101158.84;5032747;28;20196;-71
2021/10/13 05:20:57;;;;;;;3.93;1.67;;;;;;;8.01;83.67;101168.72;5034032;28;20207;-66
2021/10/13 05:23:22;;;;;;;3.83;2.00;;;;;;;8.08;82.92;101162.25;5033656;28;20172;-66
2021/10/13 05:25:47;;;;;;;3.63;1.70;;;;;;;8.09;83.20;101163.97;5033321;28;20172;-66
2021/10/13 05:28:13;;;;;;;6.00;1.97;;;;;;;8.04;82.99;101167.72;5061801;22;20243;-66
2021/10/13 05:30:38;;;;;;;3.27;1.90;;;;;;;8.01;83.14;101178.47;5053041;28;20211;-66
2021/10/13 05:33:03;;;;;;;4.40;1.90;;;;;;;7.90;83.79;101186.00;5053461;28;20195;-67
2021/10/13 05:35:29;;;;;;;3.90;2.37;;;;;;;7.87;83.93;101181.66;5053404;28;20180;-67
2021/10/13 05:37:54;;;;;;;4.80;1.73;;;;;;;7.92;84.18;101186.81;5052359;28;20677;-68
2021/10/13 05:40:19;;;;;;;7.20;1.83;;;;;;;7.94;83.91;101198.25;5053893;28;20196;-74
2021/10/13 05:42:44;;;;;;;4.13;2.00;;;;;;;7.95;83.97;101198.19;5052378;28;20728;-72
2021/10/13 05:45:11;;;;;;;2.17;1.60;;;;;;;8.00;84.18;101196.22;5053572;28;20176;-73
2021/10/13 05:47:36;;;;;;;1.97;1.57;;;;;;;8.13;83.23;101201.94;5052037;28;20180;-71
2021/10/13 05:50:02;;;;;;;4.67;1.80;;;;;;;8.10;83.15;101196.75;5053274;28;20198;-73
2021/10/13 05:52:27;;;;;;;5.57;1.60;;;;;;;8.19;83.19;101204.41;5052223;28;20294;-73
2021/10/13 05:54:53;;;;;;;3.77;1.60;;;;;;;8.29;82.65;101199.59;5053513;28;20179;-74
2021/10/13 05:57:18;;;;;;;3.20;1.50;;;;;;;8.23;83.22;101202.50;5053242;28;20190;-73
2021/10/13 05:59:46;;;;;;;3.07;1.70;;;;;;;8.23;83.59;101210.47;5052922;28;20565;-75
2021/10/13 06:02:12;;;;;;;3.77;1.87;;;;;;;8.31;83.09;101217.25;5052947;28;20168;-74
2021/10/13 06:04:37;;;;;;;3.37;1.50;;;;;;;8.31;83.45;101219.91;5053032;28;20229;-73
2021/10/13 06:07:02;;;;;;;2.73;1.47;;;;;;;8.26;82.87;101218.34;5053002;28;20183;-73
2021/10/13 06:09:27;;;;;;;2.33;1.40;;;;;;;8.29;82.69;101219.09;5053354;28;20629;-73
2021/10/13 06:11:53;;;;;;;3.20;1.70;;;;;;;8.42;82.62;101222.19;5053543;28;20249;-73
2021/10/13 06:14:18;;;;;;;2.93;2.00;;;;;;;8.32;83.20;101232.28;5052944;28;20247;-74
2021/10/13 06:16:44;;;;;;;3.57;1.87;;;;;;;8.42;83.23;101228.38;5053277;28;20182;-73
2021/10/13 06:19:09;;;;;;;4.87;1.80;;;;;;;8.44;82.69;101231.84;5052809;28;20725;-73
2021/10/13 06:21:34;;;;;;;4.00;1.50;;;;;;;8.47;82.96;101230.84;5051528;28;20198;-75
2021/10/13 06:24:00;;;;;;;3.67;1.93;;;;;;;8.60;82.37;101239.25;5051959;28;20689;-74
2021/10/13 06:26:25;;;;;;;1.70;1.60;;;;;;;8.61;82.61;101248.97;5057414;28;20630;-74
2021/10/13 06:28:50;;;;;;;3.10;1.90;;;;;;;8.61;82.36;101248.97;5071802;28;20246;-73
2021/10/13 06:31:16;;;;;;;3.57;2.13;;;;;;;8.78;82.17;101263.34;5056670;28;20203;-73
2021/10/13 06:33:41;;;;;;;3.63;1.97;;;;;;;8.84;82.25;101254.25;5056581;28;20184;-73
2021/10/13 06:36:07;;;;;;;4.13;2.50;;;;;;;8.90;82.24;101256.66;5055371;28;20225;-74
2021/10/13 06:38:33;;;;;;;4.43;2.20;;;;;;;8.91;82.05;101261.06;5056358;28;20199;-74
2021/10/13 06:40:58;;;;;;;3.47;2.23;;;;;;;9.13;81.94;101269.09;5055603;28;20167;-73
2021/10/13 06:43:25;;;;;;;4.60;2.67;;;;;;;9.11;81.93;101264.75;5054944;28;20248;-73
2021/10/13 06:45:50;;;;;;;3.50;1.90;;;;;;;9.16;81.46;101278.75;5038432;28;20184;-74
2021/10/13 06:48:17;;;;;;;2.53;1.60;;;;;;;9.27;81.80;101282.69;5056291;28;20179;-73
2021/10/13 06:50:43;;;;;;;2.50;1.67;;;;;;;9.20;81.60;101289.22;5056678;28;20626;-72
2021/10/13 06:53:08;;;;;;;3.17;1.77;;;;;;;9.37;81.45;101285.88;5054914;28;20206;-73
2021/10/13 06:55:33;;;;;;;2.07;1.63;;;;;;;9.13;82.61;101293.06;5038317;28;20179;-74
2021/10/13 06:57:58;;;;;;;2.80;1.93;;;;;;;9.30;81.57;101295.94;5054916;28;20176;-72
2021/10/13 07:00:24;;;;;;;3.23;2.07;;;;;;;9.28;81.75;101294.22;5054781;28;20238;-74
2021/10/13 07:02:49;;;;;;;4.83;1.83;;;;;;;9.57;81.38;101293.91;5054733;28;20175;-73
2021/10/13 07:05:16;;;;;;;2.10;1.70;;;;;;;9.50;81.36;101291.56;5056154;28;20183;-74
2021/10/13 07:07:45;;;;;;;2.77;1.77;;;;;;;9.52;81.59;101298.56;5054553;28;20199;-73
2021/10/13 07:10:11;;;;;;;4.30;1.70;;;;;;;9.66;81.16;101300.66;5055869;28;20278;-73
2021/10/13 07:12:37;;;;;;;3.17;1.97;;;;;;;9.64;80.76;101297.19;5054550;28;20716;-72
2021/10/13 07:15:03;;;;;;;4.63;1.87;;;;;;;9.75;81.21;101294.09;5054446;28;20210;-73
2021/10/13 07:17:28;;;;;;;3.90;1.70;;;;;;;9.63;81.54;101304.31;5055809;28;20218;-73
2021/10/13 07:19:55;;;;;;;2.80;2.10;;;;;;;9.84;81.07;101307.03;5054476;28;20202;-74
2021/10/13 07:22:20;;;;;;;7.00;2.00;;;;;;;9.96;81.09;101307.34;5054403;28;20176;-74
2021/10/13 07:24:46;;;;;;;3.93;2.00;;;;;;;9.85;80.81;101306.09;5054190;28;20178;-73
2021/10/13 07:27:11;;;;;;;4.80;2.10;;;;;;;10.15;80.27;101309.25;5055391;28;20183;-73
2021/10/13 07:29:43;;;;;;;5.43;2.10;;;;;;;10.15;80.29;101311.91;5055293;28;20207;-71
2021/10/13 07:32:08;;;;;;;4.57;1.93;;;;;;;10.31;79.54;101303.19;5055649;28;20595;-71
2021/10/13 07:34:34;;;;;;;3.20;2.03;;;;;;;10.36;79.78;101302.13;5055516;28;20629;-73
2021/10/13 07:36:59;;;;;;;2.77;1.90;;;;;;;10.53;78.98;101310.25;5053371;28;20214;-74
2021/10/13 07:39:24;;;;;;;2.20;1.77;;;;;;;10.61;79.14;101306.28;5053879;28;20227;-72
2021/10/13 07:41:50;;;;;;;5.03;2.40;;;;;;;10.79;78.59;101315.28;5053952;28;20177;-73
2021/10/13 07:44:15;;;;;;;4.90;2.33;;;;;;;10.94;77.94;101322.56;5055114;28;20177;-73
2021/10/13 07:46:40;;;;;;;4.37;2.23;;;;;;;10.86;78.32;101321.19;5053910;28;20535;-73
2021/10/13 07:49:06;;;;;;;2.53;1.90;;;;;;;10.93;78.71;101326.19;5053821;28;20192;-72
2021/10/13 07:51:31;;;;;;;2.30;1.60;;;;;;;11.04;78.61;101327.47;5053446;28;20186;-73
2021/10/13 07:53:56;;;;;;;4.70;1.90;;;;;;;11.06;79.28;101329.13;5054852;28;20178;-73
2021/10/13 07:56:22;;;;;;;2.13;1.73;;;;;;;11.38;77.96;101322.25;5055452;28;20174;-73
2021/10/13 07:58:47;;;;;;;3.40;1.90;;;;;;;11.41;77.23;101318.56;5054639;28;20221;-73
2021/10/13 08:01:12;;;;;;;2.27;1.47;;;;;;;11.09;79.10;101328.97;5053553;28;20637;-73
2021/10/13 08:03:39;;;;;;;3.67;2.13;;;;;;;11.46;78.79;101330.75;5053513;28;20177;-73
2021/10/13 08:06:06;;;;;;;6.47;2.37;;;;;;;11.55;78.55;101330.34;5055003;28;20181;-74
2021/10/13 08:08:31;;;;;;;2.50;1.90;;;;;;;11.63;76.93;101321.06;5054547;28;20361;-74
2021/10/13 08:10:56;;;;;;;3.20;1.97;;;;;;;11.75;76.79;101323.13;5036693;28;20212;-73
2021/10/13 08:13:21;;;;;;;2.37;1.83;;;;;;;11.63;77.23;101326.41;5054508;28;20706;-73
2021/10/13 08:15:47;;;;;;;3.70;2.10;;;;;;;11.61;78.14;101333.66;5054894;28;20179;-73
2021/10/13 08:18:12;;;;;;;2.33;1.50;;;;;;;11.77;78.03;101331.94;5054828;28;20179;-74
2021/10/13 08:20:37;;;;;;;4.33;1.70;;;;;;;12.37;75.69;101335.13;5054672;28;20585;-72
2021/10/13 08:23:03;;;;;;;5.97;1.93;;;;;;;12.58;74.47;101331.31;5053348;28;20172;-73
2021/10/13 08:25:28;;;;;;;3.87;1.53;;;;;;;12.84;74.23;101338.81;5055092;28;20183;-73
2021/10/13 08:27:53;;;;;;;3.30;1.50;;;;;;;13.11;72.63;101333.75;5053392;28;20191;-74
2021/10/13 08:30:18;;;;;;;5.47;1.70;;;;;;;13.26;72.66;101341.91;5054439;28;20608;-72
2021/10/13 08:32:44;;;;;;;2.90;1.63;;;;;;;13.31;72.01;101340.72;5054464;28;20671;-75
2021/10/13 08:35:09;;;;;;;3.53;1.90;;;;;;;12.68;74.80;101342.41;5053726;28;20215;-74
2021/10/13 08:37:35;;;;;;;3.03;1.70;;;;;;;12.83;73.46;101339.75;5054711;28;20186;-73
2021/10/13 08:40:00;;;;;;;3.53;1.70;;;;;;;13.60;71.98;101357.84;5052951;28;20229;-73
2021/10/13 08:42:26;;;;;;;2.40;1.70;;;;;;;12.99;74.02;101349.63;5052997;28;20176;-74
2021/10/13 08:44:53;;;;;;;4.20;1.70;;;;;;;13.07;73.00;101350.09;5052854;28;20309;-73
2021/10/13 08:47:18;;;;;;;4.67;2.00;;;;;;;12.99;74.07;101355.00;5052361;28;20266;-74
2021/10/13 08:49:45;;;;;;;3.33;1.93;;;;;;;13.60;71.23;101347.09;5052153;28;20279;-74
2021/10/13 08:52:11;;;;;;;3.83;1.87;;;;;;;13.47;70.98;101351.44;5035777;28;20325;-73
2021/10/13 08:54:37;;;;;;;3.40;1.80;;;;;;;13.79;70.31;101352.28;5052834;28;20226;-72
2021/10/13 08:57:18;;;;;;;3.13;1.90;;;;;;;12.68;75.20;101353.13;5052574;28;20178;-73
2021/10/13 08:59:47;;;;;;;3.67;1.80;;;;;;;13.36;73.46;101357.41;5053642;28;20187;-73
2021/10/13 09:02:12;;;;;;;4.37;1.80;;;;;;;14.03;70.90;101364.25;5052291;28;20172;-73
2021/10/13 09:04:38;;;;;;;5.77;1.90;;;;;;;13.98;70.78;101352.94;5052967;28;20186;-73
2021/10/13 09:07:04;;;;;;;4.00;1.80;;;;;;;14.29;69.99;101367.22;5052497;28;20179;-73
2021/10/13 09:09:30;;;;;;;3.93;1.83;;;;;;;14.14;70.47;101362.78;5053654;28;20192;-72
2021/10/13 09:11:55;;;;;;;3.57;1.80;;;;;;;14.15;70.53;101361.81;5054058;28;20290;-73
2021/10/13 09:14:22;;;;;;;5.03;2.20;;;;;;;14.09;70.96;101368.41;5054023;28;20244;-74
2021/10/13 09:17:00;;;;;;;4.50;2.00;;;;;;;13.59;72.60;101368.66;5053053;28;20186;-74
2021/10/13 09:19:48;;;;;;;6.50;1.77;;;;;;;13.95;72.91;101382.63;5052501;28;20195;-75
2021/10/13 09:22:15;;;;;;;3.87;1.90;;;;;;;14.14;70.76;101373.53;5052559;28;20242;-74
2021/10/13 09:24:46;;;;;;;5.07;2.13;;;;;;;14.17;70.50;101373.34;5053128;28;20182;-74
2021/10/13 09:27:20;;;;;;;4.50;2.20;;;;;;;14.21;71.02;101380.25;5053075;28;20763;-74
2021/10/13 09:29:46;;;;;;;4.10;2.07;;;;;;;14.24;69.95;101369.31;5051643;28;20203;-73
2021/10/13 09:32:11;;;;;;;5.20;2.43;;;;;;;14.21;70.17;101375.75;5051822;28;20205;-72
2021/10/13 09:34:47;;;;;;;4.63;2.37;;;;;;;14.96;69.27;101385.50;5053285;28;20515;-72
2021/10/13 09:37:12;;;;;;;5.97;3.07;;;;;;;14.86;68.77;101376.25;5053307;28;20625;-74
2021/10/13 09:39:37;;;;;;;5.13;2.40;;;;;;;14.88;68.52;101377.06;5051473;28;20187;-74
2021/10/13 09:42:11;;;;;;;5.40;2.40;;;;;;;14.83;68.64;101380.97;5052284;28;20179;-73
2021/10/13 09:44:41;;;;;;;4.07;2.30;;;;;;;15.23;67.30;101364.03;5051611;28;20172;-73
2021/10/13 09:47:09;;;;;;;3.10;2.17;;;;;;;15.30;67.25;101368.09;5051923;28;20230;-74
2021/10/13 09:49:43;;;;;;;4.63;2.60;;;;;;;15.24;67.94;101378.38;5052265;28;20238;-73
2021/10/13 09:52:10;;;;;;;4.67;2.10;;;;;;;14.89;67.11;101362.66;5052336;28;20373;-73
2021/10/13 09:54:36;;;;;;;3.73;2.10;;;;;;;15.57;66.08;101370.81;5051569;28;20270;-72
2021/10/13 09:57:21;;;;;;;4.90;2.40;;;;;;;15.20;67.85;101371.44;5051961;28;20193;-75
2021/10/13 10:00:07;;;;;;;4.87;1.63;;;;;;;14.93;67.68;101374.94;5051722;28;20222;-74
2021/10/13 10:02:36;;;;;;;3.83;2.10;;;;;;;15.64;65.90;101365.94;5053801;28;20206;-72
2021/10/13 10:05:04;;;;;;;3.90;1.80;;;;;;;15.54;65.37;101354.88;5052161;28;20519;-74
2021/10/13 10:07:29;;;;;;;3.70;1.60;;;;;;;15.97;64.28;101360.13;5052110;28;20172;-74
2021/10/13 10:10:11;;;;;;;3.80;1.80;;;;;;;16.61;63.34;101373.72;5053421;28;20275;-73
2021/10/13 10:12:56;;;;;;;3.70;1.47;;;;;;;16.21;63.42;101363.00;5052085;28;20201;-74
2021/10/13 10:15:31;;;;;;;3.20;1.93;;;;;;;16.43;62.32;101349.81;5052323;28;20182;-74
2021/10/13 10:17:56;;;;;;;2.20;1.10;;;;;;;14.85;65.59;101334.22;5053127;28;20664;-74
2021/10/13 10:20:41;;;;;;;1.80;1.10;;;;;;;16.14;62.65;101354.47;5051404;28;20191;-74
2021/10/13 10:23:25;;;;;;;3.73;1.00;;;;;;;16.36;62.25;101358.41;5051766;28;20156;-73
2021/10/13 10:25:50;;;;;;;3.97;1.33;;;;;;;16.67;61.85;101367.94;5052699;28;20258;-74
2021/10/13 10:28:51;;;;;;;3.20;1.30;;;;;;;17.73;58.90;101356.66;5052464;28;20251;-73
2021/10/13 10:31:28;;;;;;;2.50;1.20;;;;;;;17.21;59.15;101351.53;5039576;28;20186;-74
2021/10/13 10:34:02;;;;;;;3.73;1.40;;;;;;;17.63;58.38;101353.78;5052756;28;20184;-75
2021/10/13 10:36:37;;;;;;;3.10;0.97;;;;;;;17.23;58.16;101333.38;5052796;28;20244;-74
2021/10/13 10:39:08;;;;;;;1.90;0.73;;;;;;;16.61;58.05;101325.22;5052843;28;20313;-73
2021/10/13 10:41:40;;;;;;;1.20;0.67;;;;;;;17.04;56.44;101318.53;5053370;28;20547;-73
2021/10/13 10:44:44;;;;;;;4.10;0.87;;;;;;;17.49;55.55;101335.06;5051133;28;20198;-73
2021/10/13 10:47:11;;;;;;;2.90;1.10;;;;;;;20.50;50.62;101369.53;5052536;28;20156;-73
2021/10/13 10:49:43;;;;;;;2.00;0.80;;;;;;;21.80;46.42;101334.34;5051034;28;20195;-73
2021/10/13 10:52:08;;;;;;;2.00;1.03;;;;;;;22.85;44.95;101344.47;5052752;28;20261;-74
2021/10/13 10:54:34;;;;;;;1.83;0.90;;;;;;;25.20;41.90;101345.94;5051527;28;20640;-75
2021/10/13 10:56:59;;;;;;;1.83;0.70;;;;;;;26.27;38.78;101296.81;5051075;28;20168;-74
2021/10/13 10:59:38;;;;;;;3.90;1.10;;;;;;;22.49;43.20;101250.91;5051012;28;20191;-72
2021/10/13 11:02:10;;;;;;;2.40;0.80;;;;;;;24.83;41.71;101329.84;5052231;28;20160;-73
2021/10/13 11:04:36;;;;;;;2.70;0.87;;;;;;;27.27;38.68;101336.53;5050842;28;20262;-73
2021/10/13 11:07:02;;;;;;;2.20;0.80;;;;;;;26.22;39.52;101279.22;5034328;28;20203;-74
2021/10/13 11:09:27;;;;;;;1.60;0.80;;;;;;;24.69;41.39;101260.34;5052403;28;20704;-74
2021/10/13 11:11:52;;;;;;;1.43;0.63;;;;;;;25.73;38.91;101252.72;5053907;28;20501;-73
2021/10/13 11:14:24;;;;;;;4.53;0.90;;;;;;;24.12;40.26;101213.56;5055170;28;20263;-74
2021/10/13 11:16:55;;;;;;;2.03;0.80;;;;;;;23.60;41.73;101246.19;5054664;28;20028;-73
2021/10/13 11:19:27;;;;;;;3.70;1.40;;;;;;;24.55;40.57;101266.44;5054644;28;20196;-73
2021/10/13 11:22:06;;;;;;;2.53;0.80;;;;;;;24.93;39.32;101276.00;5055669;28;20170;-73
2021/10/13 11:24:33;;;;;;;1.97;0.83;;;;;;;25.93;37.99;101260.59;5054484;28;20217;-73
2021/10/13 11:26:59;;;;;;;2.50;1.03;;;;;;;25.02;39.06;101244.16;5055974;28;20167;-73
2021/10/13 11:29:31;;;;;;;1.83;0.80;;;;;;;25.23;39.15;101252.75;5079037;22;20242;-67
2021/10/13 11:32:08;;;;;;;8.20;5.83;;;;;;;26.25;38.10;101270.66;5074831;28;20195;-68
2021/10/13 11:34:34;;;;;;;1.70;0.87;;;;;;;24.91;38.89;101191.53;5057880;28;20171;-68
2021/10/13 11:37:00;;;;;;;2.90;0.90;;;;;;;20.39;45.68;101181.63;5074891;28;20186;-67